Reading, Vermont
Current Conditions -  °F | °C
As of 3:54 PM on Tuesday 27 Jan 2015 (Local Time) from KVSF Reporting Station
Unknown Precip Unknown Precip  
Wind Chill:   Ceiling: 3500
Heat Index: 15°   Visibility: 10mi
Dew Point:   Wind: 9mph
Humidity: 56%   Direction: 320°NW
Pressure: 29.7"   Gusts: 25mph
Location:  43.49°N, 72.55°W
Report Text: KVSF 272054Z AUTO 32008G22KT 280V360 10SM UP BKN035 OVC080 M09/M17 A2970 RMK AO2 UPB54 SLP068 P0000 60000 T10941167 53011 TSNO
Loading
Personal Weather Stations






























Interactive Weather Map New forecast layout! Learn more

10-Day Weather Forecast

Advertisements
Track Severe Weather on mobile